Destinations Skiathos Island National Airport

Skiathos Island National Airport (LGSK / JSI)

Flights to Skiathos Island National Airport

Flight number From ETE Dispatch
SPY-2282 EGFF Cardiff International Airport 03:35
SPY-2326 EGFF Cardiff International Airport 03:35
SPY-2510 EGPH Edinburgh Airport 04:00
SPY-506 EHGG Groningen Airport Eelde 03:05

Flights from Skiathos Island National Airport

Flight number To ETE Dispatch
SPY-2283 EGFF Cardiff International Airport 03:35
SPY-2327 EGFF Cardiff International Airport 03:35
SPY-2511 EGPH Edinburgh Airport 03:45
SPY-507 EHGG Groningen Airport Eelde
About

Skiathos Island National Airport facts

Skiathos Island National Airport is located in Skiathos at an elevation of 16.5 meters or 54 feet.

Currently, Speedy Airlines serves 8 flights to and from Skiathos Island National Airport.

Detailed airport info

Route map

Weather

Current weather

METAR

METAR

Metar data retrieved Sunday, 21 July 2024 at 19:55 UTC

LGSK 211920Z 19005KT CAVOK 28/21 Q1005
Wind Temperature
5 kt 28c